Coastal 303 — WDE2540 — position and weather

sailwx.info

Track history (hours):
 
Tides and Currents Weather Stations Pressure Air Temp Water Temp Dewpoint Dewpoint Depression Visibility Wind Speed Wind Dir Waves Ship Positions

Coastal 303

More information available from US FCC via Universal Licensing System and Coast Guard Vessel Documentation Center.

Last reported at 2014-Aug-25 14:33 UTC. Time now 2014-Aug-28 13:24 UTC.
Position N 30°02' W 090°28'.

Length 180 m; draft 9 m.

Type: Towing. MMSI: 366751340.

Date/timePositionNaut miles runAvg speedWind from/ knotsBaromVisibWave heightAir tempDewpointWater temp
2014-Aug-25 14:33N 30°02' W 090°28'12 8.9
2014-Aug-25 13:15N 30°02' W 090°42'710.5
2014-Aug-25 12:34N 29°59' W 090°49'2 1.6
2014-Aug-25 11:33N 30°00' W 090°50'0 0.0
2014-Aug-25 10:33N 30°00' W 090°50'0 0.0
2014-Aug-25 09:34N 30°00' W 090°50'0 0.0
2014-Aug-25 08:33N 30°00' W 090°50'0 0.0
2014-Aug-25 07:32N 30°00' W 090°50'0 0.0
2014-Aug-25 06:29N 30°00' W 090°50'0 0.0
2014-Aug-25 05:31N 30°00' W 090°50'0 0.0
2014-Aug-25 04:31N 30°00' W 090°50'0 0.0
2014-Aug-25 03:32N 30°00' W 090°50'0 0.0
2014-Aug-25 02:28N 30°00' W 090°50'0 0.0
2014-Aug-25 01:32N 30°00' W 090°50'0 0.0
2014-Aug-25 00:22N 30°00' W 090°50'0 0.0
2014-Aug-24 23:05N 30°00' W 090°50'0 0.0
2014-Aug-24 17:32N 30°00' W 090°50'0 0.0
2014-Aug-24 14:32N 30°00' W 090°50'0 0.0
2014-Aug-24 13:17N 30°00' W 090°50'0 0.0
2014-Aug-24 12:26N 30°00' W 090°50'0 0.0
2014-Aug-24 11:32N 30°00' W 090°50'0 0.0
2014-Aug-24 10:29N 30°00' W 090°50'0 0.0
2014-Aug-24 09:32N 30°00' W 090°50'0 0.0
2014-Aug-24 08:32N 30°00' W 090°50'0 0.0
2014-Aug-24 07:32N 30°00' W 090°50'0 0.0
2014-Aug-24 06:31N 30°00' W 090°50'0 0.0
2014-Aug-24 05:31N 30°00' W 090°50'0 0.0
2014-Aug-24 04:31N 30°00' W 090°50'0 0.0
2014-Aug-24 03:33N 30°00' W 090°50'0 0.0
2014-Aug-24 02:33N 30°00' W 090°50'0 0.0
2014-Aug-24 01:33N 30°00' W 090°50'0 0.0
2014-Aug-24 00:31N 30°00' W 090°50'0 0.0
2014-Aug-23 23:32N 30°00' W 090°50'0 0.0
2014-Aug-23 22:13N 30°00' W 090°50'0 0.0
2014-Aug-23 19:18N 30°00' W 090°50'3 0.2
2014-Aug-23 03:33N 30°01' W 090°47'0 0.0
2014-Aug-23 02:33N 30°01' W 090°47'0 0.0
2014-Aug-23 01:33N 30°01' W 090°47'0 0.0
2014-Aug-23 00:33N 30°01' W 090°47'0 0.0
2014-Aug-22 23:33N 30°01' W 090°47'8 1.4
2014-Aug-22 18:08N 30°03' W 090°38'4 6.9
2014-Aug-22 17:33N 30°03' W 090°33'31 6.0
2014-Aug-22 12:19N 29°56' W 089°59'4 5.2
2014-Aug-22 11:28N 29°52' W 089°56'378 7.9
2014-Aug-20 11:29N 27°38' W 083°12'9 9.2
2014-Aug-20 10:33N 27°37' W 083°03'9 9.2
2014-Aug-20 09:33N 27°36' W 082°52'9 9.1
2014-Aug-20 08:33N 27°37' W 082°42'9 9.0
2014-Aug-20 07:33N 27°42' W 082°34'8 8.3
2014-Aug-20 06:33N 27°48' W 082°28'3 0.2
2014-Aug-19 13:24N 27°48' W 082°25'0 0.0
2014-Aug-19 12:33N 27°48' W 082°25'0 0.0
2014-Aug-19 11:33N 27°48' W 082°25'0 0.0
2014-Aug-19 10:12N 27°48' W 082°25'0 0.0
2014-Aug-19 09:12N 27°48' W 082°25'0 0.0
2014-Aug-19 08:24N 27°48' W 082°25'0 0.0
2014-Aug-19 07:33N 27°48' W 082°25'0 0.0
2014-Aug-19 06:27N 27°48' W 082°25'0 0.0
2014-Aug-19 05:09N 27°48' W 082°25'0 0.0
2014-Aug-19 04:30N 27°48' W 082°25'0 0.0
2014-Aug-19 03:33N 27°48' W 082°25'0 0.0
2014-Aug-19 02:33N 27°48' W 082°25'1 0.4
2014-Aug-19 01:03N 27°48' W 082°25'0 0.0
2014-Aug-19 00:32N 27°48' W 082°25'0 0.1
2014-Aug-18 22:32N 27°48' W 082°25'0 0.0
2014-Aug-18 21:32N 27°48' W 082°25'0 0.0
2014-Aug-18 20:32N 27°48' W 082°25'0 0.0
2014-Aug-18 19:32N 27°48' W 082°25'0 0.0
2014-Aug-18 18:32N 27°48' W 082°25'0 0.0
2014-Aug-18 16:26N 27°48' W 082°25'0 0.0
2014-Aug-18 13:26N 27°48' W 082°25'0 0.0
2014-Aug-18 12:32N 27°48' W 082°25'0 0.0
2014-Aug-18 11:32N 27°48' W 082°25'0 0.0
2014-Aug-18 10:32N 27°48' W 082°25'0 0.0
2014-Aug-18 09:11N 27°48' W 082°25'0 0.0
2014-Aug-18 08:14N 27°48' W 082°25'0 0.0
2014-Aug-18 07:32N 27°48' W 082°25'0 0.0
2014-Aug-18 06:26N 27°48' W 082°25'0 0.0
2014-Aug-18 05:32N 27°48' W 082°25'0 0.0
2014-Aug-18 04:14N 27°48' W 082°25'0 0.0
2014-Aug-18 03:11N 27°48' W 082°25'0 0.2
2014-Aug-18 02:23N 27°48' W 082°25'1 1.1
2014-Aug-18 01:33N 27°48' W 082°25'5 5.2
2014-Aug-18 00:33N 27°47' W 082°31'  
Track history (hours):
 
Tides and Currents Weather Stations Pressure Air Temp Water Temp Dewpoint Dewpoint Depression Visibility Wind Speed Wind Dir Waves Ship Positions

Coastal 303

More information available from US FCC via Universal Licensing System and Coast Guard Vessel Documentation Center.

Last reported at 2014-Aug-25 14:33 UTC. Time now 2014-Aug-28 13:24 UTC.
Position N 30°02' W 090°28'.

Length 180 m; draft 9 m.

Type: Towing. MMSI: 366751340.

Date/timePositionNaut miles runAvg speedWind from/ knotsBaromVisibWave heightAir tempDewpointWater temp
2014-Aug-25 14:33N 30°02' W 090°28'12 8.9
2014-Aug-25 13:15N 30°02' W 090°42'710.5
2014-Aug-25 12:34N 29°59' W 090°49'2 1.6
2014-Aug-25 11:33N 30°00' W 090°50'0 0.0
2014-Aug-25 10:33N 30°00' W 090°50'0 0.0
2014-Aug-25 09:34N 30°00' W 090°50'0 0.0
2014-Aug-25 08:33N 30°00' W 090°50'0 0.0
2014-Aug-25 07:32N 30°00' W 090°50'0 0.0
2014-Aug-25 06:29N 30°00' W 090°50'0 0.0
2014-Aug-25 05:31N 30°00' W 090°50'0 0.0
2014-Aug-25 04:31N 30°00' W 090°50'0 0.0
2014-Aug-25 03:32N 30°00' W 090°50'0 0.0
2014-Aug-25 02:28N 30°00' W 090°50'0 0.0
2014-Aug-25 01:32N 30°00' W 090°50'0 0.0
2014-Aug-25 00:22N 30°00' W 090°50'0 0.0
2014-Aug-24 23:05N 30°00' W 090°50'0 0.0
2014-Aug-24 17:32N 30°00' W 090°50'0 0.0
2014-Aug-24 14:32N 30°00' W 090°50'0 0.0
2014-Aug-24 13:17N 30°00' W 090°50'0 0.0
2014-Aug-24 12:26N 30°00' W 090°50'0 0.0
2014-Aug-24 11:32N 30°00' W 090°50'0 0.0
2014-Aug-24 10:29N 30°00' W 090°50'0 0.0
2014-Aug-24 09:32N 30°00' W 090°50'0 0.0
2014-Aug-24 08:32N 30°00' W 090°50'0 0.0
2014-Aug-24 07:32N 30°00' W 090°50'0 0.0
2014-Aug-24 06:31N 30°00' W 090°50'0 0.0
2014-Aug-24 05:31N 30°00' W 090°50'0 0.0
2014-Aug-24 04:31N 30°00' W 090°50'0 0.0
2014-Aug-24 03:33N 30°00' W 090°50'0 0.0
2014-Aug-24 02:33N 30°00' W 090°50'0 0.0
2014-Aug-24 01:33N 30°00' W 090°50'0 0.0
2014-Aug-24 00:31N 30°00' W 090°50'0 0.0
2014-Aug-23 23:32N 30°00' W 090°50'0 0.0
2014-Aug-23 22:13N 30°00' W 090°50'0 0.0
2014-Aug-23 19:18N 30°00' W 090°50'3 0.2
2014-Aug-23 03:33N 30°01' W 090°47'0 0.0
2014-Aug-23 02:33N 30°01' W 090°47'0 0.0
2014-Aug-23 01:33N 30°01' W 090°47'0 0.0
2014-Aug-23 00:33N 30°01' W 090°47'0 0.0
2014-Aug-22 23:33N 30°01' W 090°47'8 1.4
2014-Aug-22 18:08N 30°03' W 090°38'4 6.9
2014-Aug-22 17:33N 30°03' W 090°33'31 6.0
2014-Aug-22 12:19N 29°56' W 089°59'4 5.2
2014-Aug-22 11:28N 29°52' W 089°56'378 7.9
2014-Aug-20 11:29N 27°38' W 083°12'9 9.2
2014-Aug-20 10:33N 27°37' W 083°03'9 9.2
2014-Aug-20 09:33N 27°36' W 082°52'9 9.1
2014-Aug-20 08:33N 27°37' W 082°42'9 9.0
2014-Aug-20 07:33N 27°42' W 082°34'8 8.3
2014-Aug-20 06:33N 27°48' W 082°28'3 0.2
2014-Aug-19 13:24N 27°48' W 082°25'0 0.0
2014-Aug-19 12:33N 27°48' W 082°25'0 0.0
2014-Aug-19 11:33N 27°48' W 082°25'0 0.0
2014-Aug-19 10:12N 27°48' W 082°25'0 0.0
2014-Aug-19 09:12N 27°48' W 082°25'0 0.0
2014-Aug-19 08:24N 27°48' W 082°25'0 0.0
2014-Aug-19 07:33N 27°48' W 082°25'0 0.0
2014-Aug-19 06:27N 27°48' W 082°25'0 0.0
2014-Aug-19 05:09N 27°48' W 082°25'0 0.0
2014-Aug-19 04:30N 27°48' W 082°25'0 0.0
2014-Aug-19 03:33N 27°48' W 082°25'0 0.0
2014-Aug-19 02:33N 27°48' W 082°25'1 0.4
2014-Aug-19 01:03N 27°48' W 082°25'0 0.0
2014-Aug-19 00:32N 27°48' W 082°25'0 0.1
2014-Aug-18 22:32N 27°48' W 082°25'0 0.0
2014-Aug-18 21:32N 27°48' W 082°25'0 0.0
2014-Aug-18 20:32N 27°48' W 082°25'0 0.0
2014-Aug-18 19:32N 27°48' W 082°25'0 0.0
2014-Aug-18 18:32N 27°48' W 082°25'0 0.0
2014-Aug-18 16:26N 27°48' W 082°25'0 0.0
2014-Aug-18 13:26N 27°48' W 082°25'0 0.0
2014-Aug-18 12:32N 27°48' W 082°25'0 0.0
2014-Aug-18 11:32N 27°48' W 082°25'0 0.0
2014-Aug-18 10:32N 27°48' W 082°25'0 0.0
2014-Aug-18 09:11N 27°48' W 082°25'0 0.0
2014-Aug-18 08:14N 27°48' W 082°25'0 0.0
2014-Aug-18 07:32N 27°48' W 082°25'0 0.0
2014-Aug-18 06:26N 27°48' W 082°25'0 0.0
2014-Aug-18 05:32N 27°48' W 082°25'0 0.0
2014-Aug-18 04:14N 27°48' W 082°25'0 0.0
2014-Aug-18 03:11N 27°48' W 082°25'0 0.2
2014-Aug-18 02:23N 27°48' W 082°25'1 1.1
2014-Aug-18 01:33N 27°48' W 082°25'5 5.2
2014-Aug-18 00:33N 27°47' W 082°31'  

Dump ship's entire track history